createdAt,value
2022-12-17T00:02:35.539Z,94676.50
2022-12-17T00:05:21.297Z,94677.75
2022-12-17T00:08:06.642Z,94685.78
2022-12-17T00:10:51.719Z,94679.88
2022-12-17T00:13:39.786Z,94691.25
2022-12-17T00:16:25.874Z,94693.69
2022-12-17T00:19:10.989Z,94698.06
2022-12-17T00:21:56.479Z,94688.22
2022-12-17T00:24:42.089Z,94695.81
2022-12-17T00:27:27.669Z,94696.41
2022-12-17T00:30:12.747Z,94719.38
2022-12-17T00:33:05.899Z,94715.44
2022-12-17T00:35:51.192Z,94720.06
2022-12-17T00:38:38.401Z,94721.97
2022-12-17T00:41:24.057Z,94723.06
2022-12-17T00:44:09.685Z,94729.28
2022-12-17T00:46:55.012Z,94723.53
2022-12-17T00:49:40.940Z,94741.34
2022-12-17T00:52:26.423Z,94740.03
2022-12-17T00:55:11.935Z,94738.56
2022-12-17T00:57:57.302Z,94739.47
2022-12-17T01:00:42.744Z,94740.03
2022-12-17T01:03:31.954Z,94749.53
2022-12-17T01:06:22.514Z,94756.81
2022-12-17T01:09:08.116Z,94761.16
2022-12-17T01:11:53.482Z,94759.81
2022-12-17T01:14:43.872Z,94767.25
2022-12-17T01:17:29.572Z,94761.09
2022-12-17T01:20:14.939Z,94779.72
2022-12-17T01:23:00.121Z,94775.63
2022-12-17T01:25:45.431Z,94772.44
2022-12-17T01:28:30.529Z,94770.00
2022-12-17T01:31:16.869Z,94767.84
2022-12-17T01:34:02.158Z,94774.56
2022-12-17T01:36:47.730Z,94777.47
2022-12-17T01:39:33.149Z,94768.56
2022-12-17T01:42:18.381Z,94787.28
2022-12-17T01:45:16.880Z,94796.78
2022-12-17T01:48:17.897Z,94791.19
2022-12-17T01:51:09.912Z,94797.06
2022-12-17T01:54:26.936Z,94790.41
2022-12-17T01:57:14.996Z,94792.84
2022-12-17T02:00:23.700Z,94797.88
2022-12-17T02:03:09.237Z,94808.06
2022-12-17T02:06:08.172Z,94808.13
2022-12-17T02:09:21.136Z,94810.88
2022-12-17T02:12:42.002Z,94810.28
2022-12-17T02:15:49.312Z,94812.75
2022-12-17T02:18:47.549Z,94814.19
2022-12-17T02:21:32.766Z,94811.28
2022-12-17T02:24:24.846Z,94824.81
2022-12-17T02:27:20.423Z,94816.16
2022-12-17T02:30:33.037Z,94806.19
2022-12-17T02:33:18.417Z,94825.69
2022-12-17T02:36:21.868Z,94821.91
2022-12-17T02:39:06.941Z,94821.28
2022-12-17T02:42:14.797Z,94830.56
2022-12-17T02:45:02.910Z,94842.47
2022-12-17T02:47:48.404Z,94841.06
2022-12-17T02:50:33.875Z,94840.25
2022-12-17T02:53:21.315Z,94844.66
2022-12-17T02:56:06.464Z,94839.69
2022-12-17T02:58:51.845Z,94848.72
2022-12-17T03:01:37.660Z,94838.09
2022-12-17T03:04:23.323Z,94836.56
2022-12-17T03:07:08.458Z,94842.63
2022-12-17T03:09:53.758Z,94852.03
2022-12-17T03:12:38.988Z,94834.56
2022-12-17T03:15:24.879Z,94861.53
2022-12-17T03:18:09.966Z,94862.66
2022-12-17T03:20:55.254Z,94856.81
2022-12-17T03:23:40.560Z,94863.78
2022-12-17T03:26:25.836Z,94863.00
2022-12-17T03:29:10.941Z,94849.63
2022-12-17T03:31:56.564Z,94849.81
2022-12-17T03:34:41.661Z,94865.03
2022-12-17T03:37:27.027Z,94843.31
2022-12-17T03:40:12.140Z,94862.53
2022-12-17T03:42:57.500Z,94862.53
2022-12-17T03:45:43.802Z,94870.09
2022-12-17T03:48:37.622Z,94862.81
2022-12-17T03:51:23.276Z,94868.81
2022-12-17T03:54:08.435Z,94845.41
2022-12-17T03:56:54.026Z,94873.13
2022-12-17T03:59:39.498Z,94852.44
2022-12-17T04:02:25.605Z,94852.56
2022-12-17T04:05:18.173Z,94863.56
2022-12-17T04:08:05.438Z,94853.69
2022-12-17T04:10:51.149Z,94870.75
2022-12-17T04:13:40.721Z,94863.28
2022-12-17T04:16:28.043Z,94894.59
2022-12-17T04:19:13.618Z,94871.97
2022-12-17T04:21:59.205Z,94878.59
2022-12-17T04:24:44.879Z,94890.25
2022-12-17T04:27:30.198Z,94883.69
2022-12-17T04:30:16.261Z,94888.03
2022-12-17T04:33:01.905Z,94897.31
2022-12-17T04:35:47.314Z,94890.75
2022-12-17T04:38:32.676Z,94880.00
2022-12-17T04:41:19.355Z,94890.38
2022-12-17T04:44:04.765Z,94879.53
2022-12-17T04:46:50.577Z,94902.25
2022-12-17T04:49:35.880Z,94918.16
2022-12-17T04:52:21.344Z,94913.16
2022-12-17T04:55:06.660Z,94923.31
2022-12-17T04:57:52.242Z,94894.16
2022-12-17T05:00:39.371Z,94945.34
2022-12-17T05:03:28.317Z,94919.34
2022-12-17T05:06:14.951Z,94921.13
2022-12-17T05:09:00.458Z,94910.28
2022-12-17T05:11:46.016Z,94936.19
2022-12-17T05:14:31.316Z,94906.94
2022-12-17T05:17:16.605Z,94923.59
2022-12-17T05:20:09.570Z,94972.16
2022-12-17T05:22:54.652Z,94964.69
2022-12-17T05:25:40.184Z,94968.91
2022-12-17T05:28:25.332Z,94975.00
2022-12-17T05:31:14.627Z,94976.84
2022-12-17T05:34:00.614Z,94987.94
2022-12-17T05:36:45.720Z,94974.59
2022-12-17T05:39:31.473Z,94981.41
2022-12-17T05:42:17.066Z,94990.78
2022-12-17T05:45:02.670Z,94986.66
2022-12-17T05:47:47.990Z,94979.19
2022-12-17T05:50:33.292Z,94995.94
2022-12-17T05:53:25.397Z,94998.63
2022-12-17T05:56:11.387Z,95005.50
2022-12-17T05:58:58.169Z,95008.84
2022-12-17T06:01:43.952Z,95005.50
2022-12-17T06:04:29.797Z,95010.50
2022-12-17T06:07:15.314Z,95009.72
2022-12-17T06:10:00.902Z,95013.94
2022-12-17T06:12:46.289Z,95015.72
2022-12-17T06:15:31.747Z,95002.31
2022-12-17T06:18:17.569Z,95004.78
2022-12-17T06:21:03.728Z,95013.28
2022-12-17T06:23:49.062Z,95005.75
2022-12-17T06:26:34.619Z,95005.69
2022-12-17T06:29:20.167Z,95010.75
2022-12-17T06:32:05.690Z,95014.09
2022-12-17T06:34:51.279Z,95010.81
2022-12-17T06:37:45.172Z,95015.88
2022-12-17T06:40:30.678Z,95021.69
2022-12-17T06:43:16.372Z,95019.25
2022-12-17T06:46:01.640Z,95029.34
2022-12-17T06:48:46.651Z,95031.06
2022-12-17T06:51:31.835Z,95030.19
2022-12-17T06:54:17.480Z,95041.13
2022-12-17T06:57:03.088Z,95047.88
2022-12-17T06:59:48.603Z,95050.41
2022-12-17T07:02:34.237Z,95057.09
2022-12-17T07:05:19.877Z,95062.28
2022-12-17T07:08:05.114Z,95058.97
2022-12-17T07:10:50.454Z,95055.63
2022-12-17T07:13:36.014Z,95059.97
2022-12-17T07:16:21.731Z,95073.53
2022-12-17T07:19:07.240Z,95085.28
2022-12-17T07:21:52.717Z,95094.59
2022-12-17T07:24:37.990Z,95099.59
2022-12-17T07:27:23.065Z,95103.66
2022-12-17T07:30:08.332Z,95108.72
2022-12-17T07:32:53.445Z,95122.19
2022-12-17T07:35:39.638Z,95111.22
2022-12-17T07:38:25.373Z,95124.78
2022-12-17T07:41:10.675Z,95123.28
2022-12-17T07:43:55.951Z,95125.03
2022-12-17T07:46:41.689Z,95137.81
2022-12-17T07:49:27.365Z,95135.31
2022-12-17T07:52:13.205Z,95140.34
2022-12-17T07:54:58.565Z,95138.63
2022-12-17T07:57:44.535Z,95132.59
2022-12-17T08:00:30.879Z,95141.91
2022-12-17T08:03:20.612Z,95142.78
2022-12-17T08:06:06.002Z,95145.31
2022-12-17T08:08:51.626Z,95146.91
2022-12-17T08:11:37.156Z,95151.84
2022-12-17T08:14:22.298Z,95161.88
2022-12-17T08:17:07.811Z,95166.19
2022-12-17T08:19:52.996Z,95171.19
2022-12-17T08:22:38.457Z,95165.22
2022-12-17T08:25:25.348Z,95169.38
2022-12-17T08:28:49.155Z,95174.34
2022-12-17T08:31:25.782Z,95179.47
2022-12-17T08:34:11.328Z,95172.59
2022-12-17T08:36:56.473Z,95172.47
2022-12-17T08:39:41.914Z,95175.66
2022-12-17T08:42:27.552Z,95162.94
2022-12-17T08:45:12.791Z,95157.66
2022-12-17T08:48:03.633Z,95164.06
2022-12-17T08:50:49.509Z,95168.06
2022-12-17T08:53:35.385Z,95158.56
2022-12-17T08:56:20.840Z,95170.84
2022-12-17T08:59:06.285Z,95174.00
2022-12-17T09:01:51.724Z,95175.56
2022-12-17T09:04:37.407Z,95191.19
2022-12-17T09:07:22.640Z,95193.66
2022-12-17T09:10:07.752Z,95191.75
2022-12-17T09:12:52.881Z,95204.97
2022-12-17T09:15:38.436Z,95200.50
2022-12-17T09:18:23.798Z,95201.13
2022-12-17T09:21:15.402Z,95212.66
2022-12-17T09:24:00.975Z,95208.38
2022-12-17T09:26:46.236Z,95210.09
2022-12-17T09:29:31.906Z,95208.25
2022-12-17T09:32:17.190Z,95204.91
2022-12-17T09:35:02.569Z,95201.88
2022-12-17T09:37:47.697Z,95197.13
2022-12-17T09:40:42.575Z,95198.03
2022-12-17T09:44:11.072Z,95206.69
2022-12-17T09:47:13.455Z,95205.31
2022-12-17T09:49:58.700Z,95195.69
2022-12-17T09:53:00.140Z,95190.63
2022-12-17T09:56:05.716Z,95198.09
2022-12-17T09:58:55.297Z,95197.69
2022-12-17T10:01:49.837Z,95185.34
2022-12-17T10:04:59.761Z,95190.50
2022-12-17T10:07:53.528Z,95175.72
2022-12-17T10:10:48.274Z,95178.69
2022-12-17T10:13:37.889Z,95170.22
2022-12-17T10:16:53.356Z,95169.94
2022-12-17T10:19:51.882Z,95165.38
2022-12-17T10:22:39.633Z,95175.28
2022-12-17T10:25:43.102Z,95179.19
2022-12-17T10:28:33.800Z,95171.25
2022-12-17T10:31:20.709Z,95177.50
2022-12-17T10:34:23.225Z,95167.75
2022-12-17T10:37:10.449Z,95167.25
2022-12-17T10:39:57.307Z,95166.94
2022-12-17T10:42:49.199Z,95163.19
2022-12-17T10:45:49.040Z,95170.16
2022-12-17T10:48:49.904Z,95170.59
2022-12-17T10:51:54.013Z,95175.84
2022-12-17T10:54:49.742Z,95179.56
2022-12-17T10:57:55.621Z,95180.75
2022-12-17T11:00:58.856Z,95170.72
2022-12-17T11:04:17.332Z,95177.63
2022-12-17T11:07:07.332Z,95176.72
2022-12-17T11:10:09.533Z,95169.88
2022-12-17T11:13:15.539Z,95168.22
2022-12-17T11:16:12.914Z,95180.22
2022-12-17T11:18:58.141Z,95182.16
2022-12-17T11:21:48.202Z,95177.19
2022-12-17T11:24:45.103Z,95178.13
2022-12-17T11:27:40.379Z,95173.09
2022-12-17T11:30:34.426Z,95172.25
2022-12-17T11:33:28.183Z,95174.25
2022-12-17T11:36:29.494Z,95178.63
2022-12-17T11:39:16.693Z,95178.59
2022-12-17T11:42:34.342Z,95169.81
2022-12-17T11:45:51.262Z,95172.56
2022-12-17T11:48:55.896Z,95177.13
2022-12-17T11:51:57.808Z,95157.28
2022-12-17T11:55:13.517Z,95168.19
2022-12-17T11:58:35.195Z,95172.34
2022-12-17T12:01:47.317Z,95164.06
2022-12-17T12:05:43.526Z,95177.94
2022-12-17T12:08:43.736Z,95155.56
2022-12-17T12:12:04.348Z,95158.94
2022-12-17T12:15:20.911Z,95163.97
2022-12-17T12:19:00.146Z,95149.75
2022-12-17T12:22:27.321Z,95152.81
2022-12-17T12:25:34.621Z,95141.50
2022-12-17T12:28:57.254Z,95157.88
2022-12-17T12:32:35.534Z,95150.91
2022-12-17T12:35:23.050Z,95141.44
2022-12-17T12:38:08.391Z,95140.44
2022-12-17T12:41:03.376Z,95148.28
2022-12-17T12:43:52.617Z,95152.06
2022-12-17T12:47:03.087Z,95146.91
2022-12-17T12:50:38.477Z,95157.56
2022-12-17T12:53:24.630Z,95147.81
2022-12-17T12:56:09.785Z,95145.78
2022-12-17T12:58:55.262Z,95127.31
2022-12-17T13:01:53.309Z,95151.69
2022-12-17T13:04:51.072Z,95154.44
2022-12-17T13:07:28.080Z,95164.22
2022-12-17T13:09:58.611Z,95141.50
2022-12-17T13:12:45.698Z,95140.56
2022-12-17T13:15:16.932Z,95149.56
2022-12-17T13:18:14.414Z,95134.41
2022-12-17T13:20:41.158Z,95141.72
2022-12-17T13:23:28.402Z,95155.81
2022-12-17T13:26:23.368Z,95151.94
2022-12-17T13:29:01.945Z,95149.88
2022-12-17T13:31:54.210Z,95143.75
2022-12-17T13:34:44.247Z,95136.28
2022-12-17T13:37:26.594Z,95142.72
2022-12-17T13:40:05.014Z,95159.44
2022-12-17T13:42:35.840Z,95126.84
2022-12-17T13:45:04.153Z,95159.63
2022-12-17T13:47:35.259Z,95153.94
2022-12-17T13:53:13.282Z,95164.06
2022-12-17T13:55:40.926Z,95160.28
2022-12-17T13:58:22.674Z,95171.81
2022-12-17T14:00:49.410Z,95178.00
2022-12-17T14:03:43.084Z,95155.78
2022-12-17T14:06:11.986Z,95179.94
2022-12-17T14:08:40.080Z,95168.53
2022-12-17T14:11:25.614Z,95185.91
2022-12-17T14:13:52.506Z,95164.28
2022-12-17T14:16:21.396Z,95188.47
2022-12-17T14:18:54.548Z,95168.50
2022-12-17T14:21:27.498Z,95188.91
2022-12-17T14:23:56.232Z,95185.63
2022-12-17T14:26:23.274Z,95191.22
2022-12-17T14:28:53.902Z,95200.56
2022-12-17T14:31:27.241Z,95214.25
2022-12-17T14:34:21.252Z,95198.69
2022-12-17T14:36:54.719Z,95218.69
2022-12-17T14:39:30.616Z,95219.50
2022-12-17T14:42:22.314Z,95208.50
2022-12-17T14:44:53.562Z,95208.63
2022-12-17T14:47:24.387Z,95215.31
2022-12-17T14:50:12.086Z,95233.00
2022-12-17T14:52:48.900Z,95231.13
2022-12-17T14:55:29.361Z,95239.09
2022-12-17T14:58:16.683Z,95235.38
2022-12-17T15:00:54.184Z,95239.25
2022-12-17T15:03:25.993Z,95240.63
2022-12-17T15:06:02.383Z,95220.44
2022-12-17T15:08:34.302Z,95235.00
2022-12-17T15:11:01.782Z,95229.94
2022-12-17T15:13:28.838Z,95237.28
2022-12-17T15:15:55.585Z,95223.72
2022-12-17T15:18:24.459Z,95243.97
2022-12-17T15:20:51.297Z,95257.28
2022-12-17T15:23:21.613Z,95226.00
2022-12-17T15:25:50.521Z,95256.09
2022-12-17T15:28:19.105Z,95239.09
2022-12-17T15:30:47.630Z,95249.88
2022-12-17T15:33:15.309Z,95261.31
2022-12-17T15:35:42.862Z,95260.03
2022-12-17T15:38:11.354Z,95257.56
2022-12-17T15:40:38.216Z,95260.28
2022-12-17T15:43:14.746Z,95256.63
2022-12-17T15:45:49.301Z,95283.44
2022-12-17T15:48:21.475Z,95287.06
2022-12-17T15:50:49.129Z,95289.91
2022-12-17T15:53:15.897Z,95301.97
2022-12-17T15:55:42.840Z,95293.06
2022-12-17T15:58:11.669Z,95295.19
2022-12-17T16:00:38.953Z,95300.25
2022-12-17T16:03:05.938Z,95309.88
2022-12-17T16:05:32.835Z,95313.25
2022-12-17T16:08:02.498Z,95319.38
2022-12-17T16:10:30.252Z,95311.19
2022-12-17T16:12:56.996Z,95309.53
2022-12-17T16:15:23.806Z,95307.63
2022-12-17T16:17:50.666Z,95306.19
2022-12-17T16:20:17.500Z,95290.69
2022-12-17T16:22:44.514Z,95315.19
2022-12-17T16:25:11.444Z,95313.66
2022-12-17T16:27:38.359Z,95324.81
2022-12-17T16:30:05.930Z,95324.16
2022-12-17T16:32:36.599Z,95291.72
2022-12-17T16:35:04.971Z,95313.97
2022-12-17T16:37:32.243Z,95300.22
2022-12-17T16:40:00.308Z,95318.97
2022-12-17T16:42:27.913Z,95326.53
2022-12-17T16:44:54.654Z,95315.00
2022-12-17T16:47:21.401Z,95322.69
2022-12-17T16:49:50.754Z,95322.72
2022-12-17T16:52:17.551Z,95321.97
2022-12-17T16:54:44.333Z,95299.81
2022-12-17T16:57:11.186Z,95331.41
2022-12-17T16:59:37.897Z,95302.44
2022-12-17T17:02:04.767Z,95317.66
2022-12-17T17:04:31.634Z,95317.84
2022-12-17T17:06:58.428Z,95314.09
2022-12-17T17:09:25.556Z,95331.09
2022-12-17T17:11:57.025Z,95323.50
2022-12-17T17:14:24.143Z,95319.47
2022-12-17T17:16:51.541Z,95332.91
2022-12-17T17:19:19.704Z,95333.25
2022-12-17T17:21:52.871Z,95323.50
2022-12-17T17:24:24.270Z,95332.66
2022-12-17T17:26:52.296Z,95333.56
2022-12-17T17:29:19.753Z,95342.09
2022-12-17T17:34:33.777Z,95312.25
2022-12-17T17:37:00.505Z,95340.22
2022-12-17T17:39:34.339Z,95326.19
2022-12-17T17:42:01.462Z,95332.19
2022-12-17T17:44:28.358Z,95353.28
2022-12-17T17:46:55.175Z,95339.84
2022-12-17T17:49:22.447Z,95322.19
2022-12-17T17:52:09.084Z,95345.75
2022-12-17T17:54:36.681Z,95358.09
2022-12-17T17:57:03.459Z,95354.72
2022-12-17T17:59:33.631Z,95364.84
2022-12-17T18:02:02.650Z,95362.31
2022-12-17T18:04:29.964Z,95357.50
2022-12-17T18:09:43.737Z,95350.97
2022-12-17T18:12:29.256Z,95344.16
2022-12-17T18:17:46.985Z,95346.88
2022-12-17T18:20:14.476Z,95372.06
2022-12-17T18:22:41.315Z,95363.00
2022-12-17T18:25:08.162Z,95358.00
2022-12-17T18:27:34.877Z,95378.38
2022-12-17T18:30:01.614Z,95359.84
2022-12-17T18:32:28.373Z,95379.25
2022-12-17T18:34:55.208Z,95360.94
2022-12-17T18:37:22.050Z,95373.25
2022-12-17T18:39:49.402Z,95370.75
2022-12-17T18:42:34.546Z,95372.53
2022-12-17T18:45:02.244Z,95390.41
2022-12-17T18:47:28.981Z,95401.34
2022-12-17T18:49:55.757Z,95396.34
2022-12-17T18:52:24.306Z,95396.34
2022-12-17T18:54:51.142Z,95414.06
2022-12-17T18:57:17.962Z,95401.75
2022-12-17T18:59:44.793Z,95428.84
2022-12-17T19:02:13.221Z,95427.22
2022-12-17T19:04:40.705Z,95411.25
2022-12-17T19:07:07.587Z,95407.13
2022-12-17T19:09:35.792Z,95419.97
2022-12-17T19:12:08.636Z,95412.44
2022-12-17T19:14:36.719Z,95419.19
2022-12-17T19:17:03.547Z,95424.25
2022-12-17T19:19:30.312Z,95410.25
2022-12-17T19:21:59.772Z,95424.38
2022-12-17T19:24:27.016Z,95433.06
2022-12-17T19:26:54.303Z,95399.50
2022-12-17T19:29:21.562Z,95410.59
2022-12-17T19:31:48.903Z,95433.44
2022-12-17T19:34:18.034Z,95433.47
2022-12-17T19:36:46.034Z,95432.56
2022-12-17T19:39:16.805Z,95416.66
2022-12-17T19:41:44.088Z,95441.81
2022-12-17T19:44:16.881Z,95443.56
2022-12-17T19:46:44.623Z,95428.41
2022-12-17T19:49:14.184Z,95449.41
2022-12-17T19:51:43.129Z,95454.41
2022-12-17T19:54:12.482Z,95462.00
2022-12-17T19:56:39.765Z,95467.09
2022-12-17T19:59:08.431Z,95457.88
2022-12-17T20:01:40.442Z,95475.53
2022-12-17T20:04:07.161Z,95480.56
2022-12-17T20:06:35.809Z,95480.56
2022-12-17T20:09:05.382Z,95492.47
2022-12-17T20:11:35.800Z,95499.34
2022-12-17T20:14:15.602Z,95490.81
2022-12-17T20:16:44.792Z,95493.19
2022-12-17T20:19:20.802Z,95480.38
2022-12-17T20:21:48.257Z,95471.22
2022-12-17T20:24:16.886Z,95478.91
2022-12-17T20:26:45.542Z,95482.34
2022-12-17T20:29:12.845Z,95481.41
2022-12-17T20:31:39.693Z,95452.69
2022-12-17T20:34:09.169Z,95476.97
2022-12-17T20:36:36.466Z,95472.00
2022-12-17T20:39:04.247Z,95468.53
2022-12-17T20:41:32.313Z,95479.38
2022-12-17T20:44:07.566Z,95472.50
2022-12-17T20:46:36.840Z,95464.25
2022-12-17T20:49:05.434Z,95491.22
2022-12-17T20:51:32.874Z,95481.13
2022-12-17T20:54:01.381Z,95471.84
2022-12-17T20:56:32.539Z,95475.13
2022-12-17T20:59:03.827Z,95461.66
2022-12-17T21:01:33.443Z,95475.09
2022-12-17T21:04:02.011Z,95486.81
2022-12-17T21:06:40.369Z,95481.03
2022-12-17T21:09:08.204Z,95465.06
2022-12-17T21:11:36.899Z,95475.13
2022-12-17T21:14:10.353Z,95464.94
2022-12-17T21:16:39.450Z,95472.38
2022-12-17T21:19:11.346Z,95469.81
2022-12-17T21:21:38.407Z,95473.38
2022-12-17T21:24:06.777Z,95464.25
2022-12-17T21:26:40.127Z,95473.44
2022-12-17T21:29:09.129Z,95476.75
2022-12-17T21:31:51.061Z,95471.66
2022-12-17T21:34:21.940Z,95471.34
2022-12-17T21:36:50.843Z,95464.72
2022-12-17T21:39:19.611Z,95461.38
2022-12-17T21:42:07.658Z,95458.00
2022-12-17T21:44:35.150Z,95480.81
2022-12-17T21:47:02.415Z,95473.28
2022-12-17T21:49:29.393Z,95477.31
2022-12-17T21:51:59.305Z,95475.47
2022-12-17T21:54:26.336Z,95489.88
2022-12-17T21:56:53.150Z,95468.81
2022-12-17T21:59:19.898Z,95461.06
2022-12-17T22:01:46.878Z,95476.25
2022-12-17T22:04:13.818Z,95472.16
2022-12-17T22:06:51.789Z,95466.94
2022-12-17T22:09:39.708Z,95466.78
2022-12-17T22:12:30.105Z,95481.97
2022-12-17T22:14:56.810Z,95467.69
2022-12-17T22:17:24.207Z,95470.13
2022-12-17T22:19:50.977Z,95457.63
2022-12-17T22:22:17.767Z,95481.88
2022-12-17T22:24:44.553Z,95473.44
2022-12-17T22:27:11.400Z,95480.13
2022-12-17T22:29:56.545Z,95480.78
2022-12-17T22:32:41.693Z,95479.97
2022-12-17T22:36:48.256Z,95479.06
2022-12-17T22:41:49.961Z,95474.06
2022-12-17T22:44:29.878Z,95480.69
2022-12-17T22:44:45.959Z,95479.84
2022-12-17T22:46:17.091Z,95463.72
2022-12-17T22:48:44.142Z,95461.91
2022-12-17T22:51:13.937Z,95478.56
2022-12-17T22:53:46.532Z,95476.03
2022-12-17T22:56:33.044Z,95472.47
2022-12-17T22:59:00.329Z,95464.97
2022-12-17T23:01:27.964Z,95475.97
2022-12-17T23:04:00.096Z,95475.09
2022-12-17T23:06:27.415Z,95478.38
2022-12-17T23:08:54.787Z,95467.25
2022-12-17T23:11:27.622Z,95483.13
2022-12-17T23:13:55.254Z,95476.25
2022-12-17T23:16:22.724Z,95473.81
2022-12-17T23:18:51.377Z,95463.81
2022-12-17T23:21:25.218Z,95464.56
2022-12-17T23:23:53.878Z,95467.78
2022-12-17T23:26:30.301Z,95476.91
2022-12-17T23:29:04.671Z,95475.13
2022-12-17T23:31:37.447Z,95479.19
2022-12-17T23:34:05.129Z,95469.25
2022-12-17T23:36:32.092Z,95482.78
2022-12-17T23:38:59.190Z,95487.78
2022-12-17T23:41:29.699Z,95469.09
2022-12-17T23:43:57.556Z,95474.69
2022-12-17T23:46:27.096Z,95473.81
2022-12-17T23:48:53.932Z,95463.72
2022-12-17T23:51:22.623Z,95468.72
2022-12-17T23:53:49.590Z,95479.53
2022-12-17T23:56:20.592Z,95492.06
2022-12-17T23:58:48.523Z,95476.84
